Time;durP1;ratioP1;P1;durP2;ratioP2;P2;SDS_P1;SDS_P2;PMS_P1;PMS_P2;Temp;Humidity;BMP_temperature;BMP_pressure;BME280_temperature;BME280_humidity;BME280_pressure;Samples;Min_cycle;Max_cycle;Signal;HPM_P1;HPM_P2
2022/04/12 00:00:40;;;;;;;0.30;0.30;;;;;;;8.77;61.49;100811.75;6271124;22;19987;-77
2022/04/12 00:03:07;;;;;;;0.20;0.20;;;;;;;8.65;61.31;100797.81;6271722;22;20012;-77
2022/04/12 00:05:37;;;;;;;0.20;0.20;;;;;;;8.71;60.26;100802.00;6271386;22;20004;-77
2022/04/12 00:08:04;;;;;;;0.20;0.20;;;;;;;8.68;60.16;100808.22;6270439;22;20010;-78
2022/04/12 00:10:30;;;;;;;0.20;0.20;;;;;;;8.65;59.91;100811.69;6298198;22;20451;-78
2022/04/12 00:12:57;;;;;;;0.20;0.20;;;;;;;8.62;59.82;100798.47;6272420;22;20038;-78
2022/04/12 00:15:23;;;;;;;0.20;0.20;;;;;;;8.64;60.01;100791.44;6274883;22;19995;-78
2022/04/12 00:20:33;;;;;;;0.20;0.20;;;;;;;8.59;59.80;100790.84;6297735;22;20018;-78
2022/04/12 00:22:58;;;;;;;0.20;0.20;;;;;;;8.55;59.79;100787.09;6270376;22;20428;-78
2022/04/12 00:25:25;;;;;;;0.20;0.20;;;;;;;8.50;60.35;100784.50;6270197;22;20034;-78
2022/04/12 00:27:53;;;;;;;0.30;0.30;;;;;;;8.51;60.14;100784.16;6271460;22;20008;-78
2022/04/12 00:30:20;;;;;;;0.20;0.20;;;;;;;8.47;59.91;100782.38;6271192;22;20008;-78
2022/04/12 00:32:46;;;;;;;0.20;0.20;;;;;;;8.43;60.34;100779.50;6270677;22;20019;-79
2022/04/12 00:35:13;;;;;;;0.20;0.20;;;;;;;8.43;60.63;100784.22;6297623;22;19996;-79
2022/04/12 00:37:39;;;;;;;0.20;0.20;;;;;;;8.43;60.38;100779.50;6297936;22;20011;-79
2022/04/12 00:40:05;;;;;;;0.20;0.20;;;;;;;8.60;59.17;100775.81;6297221;22;20009;-78
2022/04/12 00:42:31;;;;;;;0.20;0.20;;;;;;;8.53;59.88;100769.97;6270254;22;20064;-79
2022/04/12 00:44:57;;;;;;;0.20;0.20;;;;;;;8.55;59.97;100768.50;6270430;22;20003;-79
2022/04/12 00:47:24;;;;;;;0.20;0.20;;;;;;;8.61;60.12;100774.66;6269570;22;20052;-79
2022/04/12 00:49:49;;;;;;;0.20;0.20;;;;;;;8.60;60.25;100778.59;6270321;22;20004;-78
2022/04/12 00:52:16;;;;;;;0.20;0.20;;;;;;;8.57;60.29;100768.13;6264437;23;20015;-78
2022/04/12 00:54:43;;;;;;;0.20;0.20;;;;;;;8.50;61.56;100781.72;6264598;23;20008;-78
2022/04/12 00:57:10;;;;;;;0.20;0.20;;;;;;;8.45;61.60;100770.81;6266867;22;20048;-79
2022/04/12 00:59:36;;;;;;;0.20;0.20;;;;;;;8.44;61.60;100769.22;6265824;23;20019;-78
2022/04/12 01:02:04;;;;;;;0.20;0.20;;;;;;;8.38;61.78;100769.41;6266097;23;20000;-79
2022/04/12 01:04:30;;;;;;;0.20;0.20;;;;;;;8.26;61.70;100769.28;6265901;23;19988;-78
2022/04/12 01:06:56;;;;;;;0.20;0.20;;;;;;;8.24;61.68;100760.44;6267220;22;20048;-78
2022/04/12 01:09:25;;;;;;;0.30;0.30;;;;;;;8.16;61.70;100769.63;6265856;23;20004;-78
2022/04/12 01:11:52;;;;;;;0.20;0.20;;;;;;;8.21;61.88;100771.41;6265216;23;20004;-79
2022/04/12 01:14:18;;;;;;;0.20;0.20;;;;;;;8.23;61.43;100767.16;6265845;23;20030;-78
2022/04/12 01:16:43;;;;;;;0.20;0.20;;;;;;;8.25;61.03;100758.50;6266351;22;20004;-78
2022/04/12 01:19:09;;;;;;;0.20;0.20;;;;;;;8.30;61.22;100759.13;6266263;22;20000;-78
2022/04/12 01:21:56;;;;;;;0.20;0.20;;;;;;;8.39;61.22;100768.25;6265287;23;20004;-78
2022/04/12 01:24:22;;;;;;;0.20;0.20;;;;;;;8.32;61.65;100773.47;6265155;23;20008;-78
2022/04/12 01:26:48;;;;;;;0.25;0.25;;;;;;;8.34;61.80;100767.59;6265703;22;20059;-78
2022/04/12 01:29:14;;;;;;;0.30;0.30;;;;;;;8.28;61.59;100761.41;6266227;22;20027;-78
2022/04/12 01:31:40;;;;;;;0.20;0.20;;;;;;;8.26;61.82;100747.09;6266325;23;20008;-78
2022/04/12 01:34:06;;;;;;;0.20;0.20;;;;;;;8.08;62.20;100751.06;6265203;23;20015;-78
2022/04/12 01:36:31;;;;;;;0.20;0.20;;;;;;;8.07;62.51;100753.03;6266408;22;20008;-78
2022/04/12 01:38:57;;;;;;;0.20;0.20;;;;;;;8.22;62.08;100748.91;6265960;22;20001;-79
2022/04/12 01:41:23;;;;;;;0.30;0.30;;;;;;;8.29;61.63;100751.94;6263681;23;20011;-78
2022/04/12 01:43:48;;;;;;;0.20;0.20;;;;;;;8.25;61.36;100745.44;6265289;23;19988;-78
2022/04/12 01:46:14;;;;;;;0.20;0.20;;;;;;;8.28;61.70;100752.28;6265536;23;20018;-79
2022/04/12 01:48:39;;;;;;;0.20;0.20;;;;;;;8.30;61.56;100753.56;6265109;23;20043;-79
2022/04/12 01:51:05;;;;;;;0.20;0.20;;;;;;;8.24;61.54;100741.03;6265044;23;20063;-79
2022/04/12 01:53:30;;;;;;;0.20;0.20;;;;;;;8.17;61.94;100735.22;6266050;22;20012;-78
2022/04/12 01:55:56;;;;;;;0.20;0.20;;;;;;;8.12;61.91;100736.22;6265065;23;20011;-78
2022/04/12 01:58:21;;;;;;;0.20;0.20;;;;;;;8.04;62.21;100739.00;6265313;23;20026;-79
2022/04/12 02:00:47;;;;;;;0.20;0.20;;;;;;;7.97;62.16;100734.00;6264458;22;19996;-79
2022/04/12 02:03:13;;;;;;;0.20;0.20;;;;;;;7.95;62.51;100739.06;6264821;23;19992;-79
2022/04/12 02:05:39;;;;;;;0.20;0.20;;;;;;;8.03;62.82;100737.38;6266113;23;20437;-78
2022/04/12 02:08:05;;;;;;;0.20;0.20;;;;;;;8.30;62.18;100736.94;6266185;23;20007;-79
2022/04/12 02:10:31;;;;;;;0.20;0.20;;;;;;;8.16;61.96;100730.03;6265941;22;20016;-79
2022/04/12 02:12:57;;;;;;;0.20;0.20;;;;;;;8.26;61.46;100727.69;6265816;22;20032;-79
2022/04/12 02:15:22;;;;;;;0.20;0.20;;;;;;;8.19;62.43;100730.16;6265631;23;20012;-79
2022/04/12 02:17:48;;;;;;;0.20;0.20;;;;;;;8.12;62.29;100736.22;6265642;23;20015;-78
2022/04/12 02:20:14;;;;;;;0.20;0.20;;;;;;;8.02;62.35;100735.78;6266186;23;20000;-79
2022/04/12 02:22:39;;;;;;;0.20;0.20;;;;;;;7.81;61.98;100707.97;6265290;23;20023;-79
2022/04/12 02:25:05;;;;;;;0.20;0.20;;;;;;;7.99;61.40;100719.78;6266040;23;20115;-79
2022/04/12 02:27:31;;;;;;;0.20;0.20;;;;;;;8.11;60.88;100720.75;6265218;22;20023;-79
2022/04/12 02:29:57;;;;;;;0.20;0.20;;;;;;;8.12;60.60;100714.03;6265814;23;19988;-79
2022/04/12 02:32:22;;;;;;;0.20;0.20;;;;;;;8.17;60.93;100721.34;6269195;23;20023;-79
2022/04/12 02:34:48;;;;;;;0.20;0.20;;;;;;;7.96;60.97;100726.03;6268800;22;20026;-79
2022/04/12 02:37:14;;;;;;;0.20;0.20;;;;;;;7.83;62.03;100727.88;6264873;22;20012;-79
2022/04/12 02:39:39;;;;;;;0.20;0.20;;;;;;;7.70;61.50;100726.91;6264492;23;20004;-79
2022/04/12 02:42:05;;;;;;;0.20;0.20;;;;;;;7.67;61.65;100713.75;6264482;23;20436;-79
2022/04/12 02:44:31;;;;;;;0.20;0.20;;;;;;;7.74;60.40;100725.13;6264731;23;20039;-79
2022/04/12 02:46:56;;;;;;;0.20;0.20;;;;;;;7.62;60.97;100727.75;6265862;23;20012;-79
2022/04/12 02:49:22;;;;;;;0.20;0.20;;;;;;;7.70;59.91;100728.88;6264519;23;20022;-79
2022/04/12 02:51:48;;;;;;;0.20;0.20;;;;;;;7.63;59.98;100717.50;6264998;23;20364;-79
2022/04/12 02:54:14;;;;;;;0.20;0.20;;;;;;;7.63;59.46;100723.84;6264922;23;20004;-78
2022/04/12 02:56:39;;;;;;;0.20;0.20;;;;;;;7.62;60.16;100730.53;6265820;22;20007;-78
2022/04/12 02:59:05;;;;;;;0.30;0.30;;;;;;;7.64;59.65;100727.44;6265130;23;20046;-78
2022/04/12 03:01:31;;;;;;;0.20;0.20;;;;;;;7.71;59.53;100719.41;6264810;22;20036;-79
2022/04/12 03:03:57;;;;;;;0.20;0.20;;;;;;;7.67;59.60;100716.50;6265326;23;20012;-79
2022/04/12 03:06:22;;;;;;;0.30;0.30;;;;;;;7.65;60.79;100732.63;6265506;23;20012;-78
2022/04/12 03:08:48;;;;;;;0.20;0.20;;;;;;;7.68;61.14;100714.56;6266044;23;19989;-78
2022/04/12 03:11:14;;;;;;;0.20;0.20;;;;;;;7.59;61.39;100722.88;6266037;23;20079;-81
2022/04/12 03:13:39;;;;;;;0.20;0.20;;;;;;;7.65;61.19;100729.03;6265474;23;19999;-79
2022/04/12 03:16:05;;;;;;;0.20;0.20;;;;;;;7.51;61.95;100720.91;6264798;23;20014;-79
2022/04/12 03:18:31;;;;;;;0.20;0.20;;;;;;;7.70;61.78;100729.69;6265524;23;20400;-79
2022/04/12 03:20:56;;;;;;;0.20;0.20;;;;;;;7.71;61.79;100725.75;6265307;23;20015;-78
2022/04/12 03:23:22;;;;;;;0.20;0.20;;;;;;;7.76;61.52;100727.53;6265186;23;20022;-79
2022/04/12 03:25:50;;;;;;;0.20;0.20;;;;;;;7.76;61.65;100728.34;6265748;23;20009;-78
2022/04/12 03:28:16;;;;;;;0.20;0.20;;;;;;;7.67;61.50;100724.81;6266685;22;20003;-78
2022/04/12 03:30:42;;;;;;;0.20;0.20;;;;;;;7.70;62.11;100726.91;6266447;23;20008;-79
2022/04/12 03:33:08;;;;;;;0.20;0.20;;;;;;;7.67;61.88;100726.75;6265700;22;20012;-79
2022/04/12 03:35:33;;;;;;;0.20;0.20;;;;;;;7.51;62.26;100724.53;6266317;23;19997;-78
2022/04/12 03:38:01;;;;;;;0.20;0.20;;;;;;;7.45;62.90;100733.31;6265020;22;20008;-79
2022/04/12 03:40:30;;;;;;;0.20;0.20;;;;;;;7.42;62.32;100723.72;6268311;22;20008;-79
2022/04/12 03:43:01;;;;;;;0.30;0.30;;;;;;;7.38;63.07;100727.47;6269401;22;19988;-78
2022/04/12 03:45:28;;;;;;;0.20;0.20;;;;;;;7.34;63.30;100727.31;6268283;22;19984;-79
2022/04/12 03:47:53;;;;;;;0.20;0.20;;;;;;;7.53;62.08;100729.72;6267706;22;20008;-78
2022/04/12 03:50:19;;;;;;;0.20;0.20;;;;;;;7.39;62.71;100731.88;6268346;22;20012;-78
2022/04/12 03:52:45;;;;;;;0.20;0.20;;;;;;;7.37;63.68;100729.44;6269403;23;20119;-78
2022/04/12 03:55:11;;;;;;;0.20;0.20;;;;;;;7.39;63.75;100740.16;6271156;22;20055;-78
2022/04/12 03:57:37;;;;;;;0.20;0.20;;;;;;;7.42;63.36;100734.81;6269054;23;20008;-78
2022/04/12 04:00:08;;;;;;;0.20;0.20;;;;;;;7.56;63.16;100729.06;6269130;22;20433;-78
2022/04/12 04:02:34;;;;;;;0.20;0.20;;;;;;;7.47;64.29;100733.81;6271043;22;19992;-79
2022/04/12 04:05:00;;;;;;;0.20;0.20;;;;;;;7.56;63.77;100734.59;6269900;22;20007;-78
2022/04/12 04:07:27;;;;;;;0.20;0.20;;;;;;;7.46;64.05;100741.31;6268594;22;20014;-78
2022/04/12 04:09:53;;;;;;;0.20;0.20;;;;;;;7.48;64.76;100738.22;6269025;23;19994;-78
2022/04/12 04:12:19;;;;;;;0.20;0.20;;;;;;;7.53;64.20;100741.63;6267152;22;20012;-78
2022/04/12 04:14:44;;;;;;;0.20;0.20;;;;;;;7.47;64.52;100753.19;6268780;22;20036;-78
2022/04/12 04:17:10;;;;;;;0.20;0.20;;;;;;;7.37;64.43;100742.47;6267543;23;19999;-78
2022/04/12 04:19:36;;;;;;;0.20;0.20;;;;;;;7.43;64.34;100755.00;6266596;23;20000;-78
2022/04/12 04:22:02;;;;;;;0.20;0.20;;;;;;;7.36;64.81;100752.72;6268535;23;20008;-78
2022/04/12 04:24:27;;;;;;;0.20;0.20;;;;;;;7.47;64.46;100751.25;6269148;22;20064;-78
2022/04/12 04:26:55;;;;;;;0.20;0.20;;;;;;;7.34;64.11;100761.34;6267525;23;20012;-78
2022/04/12 04:29:27;;;;;;;0.20;0.20;;;;;;;7.42;64.89;100761.69;6268480;22;20004;-78
2022/04/12 04:31:53;;;;;;;0.20;0.20;;;;;;;7.40;64.42;100761.19;6268856;23;20015;-78
2022/04/12 04:34:18;;;;;;;0.20;0.20;;;;;;;7.27;63.95;100755.50;6269940;22;19995;-78
2022/04/12 04:36:44;;;;;;;0.20;0.20;;;;;;;7.21;64.18;100762.34;6269129;23;20019;-78
2022/04/12 04:39:09;;;;;;;0.20;0.20;;;;;;;7.15;65.10;100755.34;6267634;23;20047;-78
2022/04/12 04:41:35;;;;;;;0.20;0.20;;;;;;;7.24;64.43;100764.44;6268454;22;20063;-78
2022/04/12 04:44:00;;;;;;;0.28;0.28;;;;;;;7.24;63.75;100767.22;6268579;22;20031;-78
2022/04/12 04:46:26;;;;;;;0.25;0.25;;;;;;;7.27;64.40;100765.75;6269035;22;20001;-78
2022/04/12 04:48:52;;;;;;;0.30;0.30;;;;;;;7.26;64.04;100770.47;6269162;22;19999;-79
2022/04/12 04:51:17;;;;;;;0.20;0.20;;;;;;;7.41;63.87;100762.81;6276062;22;20035;-79
2022/04/12 04:53:49;;;;;;;0.20;0.20;;;;;;;8.21;62.08;100765.88;6275652;22;20004;-79
2022/04/12 04:56:18;;;;;;;0.20;0.20;;;;;;;8.94;59.37;100771.97;6274267;22;20050;-78
2022/04/12 04:58:43;;;;;;;0.20;0.20;;;;;;;9.54;56.60;100772.66;6299891;22;20004;-78
2022/04/12 05:01:09;;;;;;;0.20;0.20;;;;;;;10.13;55.71;100770.38;6271862;22;20057;-78
2022/04/12 05:03:34;;;;;;;0.25;0.25;;;;;;;10.65;53.87;100775.28;6298581;22;20034;-78
2022/04/12 05:06:00;;;;;;;0.20;0.20;;;;;;;11.17;51.72;100773.66;6271407;22;20026;-79
2022/04/12 05:08:25;;;;;;;0.20;0.20;;;;;;;11.68;49.94;100776.75;6271264;22;20011;-79
2022/04/12 05:10:51;;;;;;;0.20;0.20;;;;;;;12.26;48.38;100774.31;6270994;22;20011;-78
2022/04/12 05:13:17;;;;;;;0.20;0.20;;;;;;;12.81;45.95;100781.66;6270041;22;19990;-78
2022/04/12 05:15:42;;;;;;;0.20;0.20;;;;;;;13.43;44.75;100773.47;6272218;22;20004;-78
2022/04/12 05:18:09;;;;;;;0.28;0.28;;;;;;;13.92;43.46;100772.81;6270529;22;20004;-78
2022/04/12 05:20:34;;;;;;;0.20;0.20;;;;;;;14.56;42.02;100779.56;6269714;22;20015;-78
2022/04/12 05:23:00;;;;;;;0.20;0.20;;;;;;;15.10;41.08;100783.16;6271761;22;20003;-78
2022/04/12 05:25:26;;;;;;;0.20;0.20;;;;;;;15.40;39.26;100777.56;6269396;22;20039;-79
2022/04/12 05:27:51;;;;;;;0.20;0.20;;;;;;;16.02;38.82;100777.88;6267304;22;20000;-79
2022/04/12 05:30:17;;;;;;;0.20;0.20;;;;;;;16.44;37.55;100783.09;6289963;22;20000;-79
2022/04/12 05:32:43;;;;;;;0.20;0.20;;;;;;;16.86;36.95;100779.03;6253566;22;20046;-83
2022/04/12 05:35:10;;;;;;;0.20;0.20;;;;;;;17.36;36.33;100784.13;6251573;22;20117;-87
2022/04/12 05:37:47;;;;;;;0.20;0.20;;;;;;;17.67;35.22;100783.44;6277533;22;20061;-87
2022/04/12 05:40:14;;;;;;;0.20;0.20;;;;;;;17.95;34.49;100779.13;6250857;22;20312;-84
2022/04/12 05:42:40;;;;;;;0.20;0.20;;;;;;;18.23;33.74;100786.84;6277123;22;20035;-83
2022/04/12 05:45:07;;;;;;;0.20;0.20;;;;;;;18.41;32.62;100786.84;6251182;22;20298;-86
2022/04/12 05:48:00;;;;;;;0.20;0.20;;;;;;;18.49;32.75;100791.28;6250652;22;20027;-85
2022/04/12 05:50:27;;;;;;;0.20;0.20;;;;;;;18.98;32.22;100790.47;6244054;22;20047;-87
2022/04/12 05:52:53;;;;;;;0.20;0.20;;;;;;;19.15;32.34;100785.19;6244536;23;20019;-83
2022/04/12 05:55:22;;;;;;;0.20;0.20;;;;;;;19.28;32.41;100795.63;6245587;23;20043;-88
2022/04/12 05:57:56;;;;;;;0.20;0.20;;;;;;;19.70;31.46;100805.16;6245856;23;20027;-79
2022/04/12 06:00:23;;;;;;;0.20;0.20;;;;;;;19.97;31.66;100794.13;6247897;22;20087;-81
2022/04/12 06:02:50;;;;;;;0.20;0.20;;;;;;;19.74;32.00;100774.91;6246881;23;20038;-81
2022/04/12 06:05:16;;;;;;;0.20;0.20;;;;;;;19.15;32.43;100800.09;6247607;22;20376;-80
2022/04/12 06:07:43;;;;;;;0.20;0.20;;;;;;;18.91;33.36;100793.31;6246355;23;20386;-83
2022/04/12 06:10:13;;;;;;;0.20;0.20;;;;;;;18.36;34.57;100784.41;6248235;23;20032;-84
2022/04/12 06:12:39;;;;;;;0.20;0.20;;;;;;;17.60;35.45;100789.06;6255352;23;20052;-78
2022/04/12 06:15:06;;;;;;;0.20;0.20;;;;;;;17.90;35.19;100800.03;6260387;23;20012;-77
2022/04/12 06:17:33;;;;;;;0.20;0.20;;;;;;;16.95;35.75;100793.53;6258387;23;20008;-78
2022/04/12 06:20:04;;;;;;;0.20;0.20;;;;;;;17.90;34.80;100799.25;6254143;23;20418;-82
2022/04/12 06:22:29;;;;;;;0.20;0.20;;;;;;;18.12;33.33;100777.56;6246815;23;20054;-86
2022/04/12 06:24:55;;;;;;;0.20;0.20;;;;;;;18.91;32.64;100801.75;6246596;22;20008;-86
2022/04/12 06:27:34;;;;;;;0.20;0.20;;;;;;;18.99;31.95;100817.44;6245606;23;20000;-79
2022/04/12 06:30:23;;;;;;;0.20;0.20;;;;;;;19.27;32.18;100812.94;6245604;23;20317;-86
2022/04/12 06:32:51;;;;;;;0.20;0.20;;;;;;;19.58;31.56;100819.69;6245358;23;20016;-81
2022/04/12 06:35:17;;;;;;;0.20;0.20;;;;;;;19.56;31.18;100816.50;6244870;23;20008;-87
2022/04/12 06:37:44;;;;;;;0.20;0.20;;;;;;;19.40;31.58;100818.97;6245120;23;20095;-84
2022/04/12 06:40:11;;;;;;;0.20;0.20;;;;;;;19.13;31.26;100818.63;6244625;23;20065;-84
2022/04/12 06:42:37;;;;;;;0.20;0.20;;;;;;;18.79;32.78;100822.69;6246639;22;20090;-83
2022/04/12 06:45:04;;;;;;;0.20;0.20;;;;;;;18.60;32.42;100814.63;6245824;23;20430;-85
2022/04/12 06:47:32;;;;;;;0.20;0.20;;;;;;;18.49;32.54;100811.00;6246639;22;20004;-79
2022/04/12 06:49:58;;;;;;;0.20;0.20;;;;;;;18.23;32.28;100821.44;6245022;23;20040;-80
2022/04/12 06:52:23;;;;;;;0.20;0.20;;;;;;;18.18;32.37;100819.00;6271284;22;20050;-80
2022/04/12 06:54:49;;;;;;;0.20;0.20;;;;;;;18.86;32.32;100815.47;6258325;22;20020;-86
2022/04/12 06:57:15;;;;;;;0.20;0.20;;;;;;;18.76;32.73;100814.25;6250739;22;20057;-81
2022/04/12 06:59:41;;;;;;;0.20;0.20;;;;;;;17.73;33.72;100821.28;6286163;22;20007;-77
2022/04/12 07:02:07;;;;;;;0.20;0.20;;;;;;;18.21;33.34;100818.19;6266073;22;20000;-78
2022/04/12 07:04:33;;;;;;;0.20;0.20;;;;;;;17.87;32.55;100814.09;6261634;22;20015;-78
2022/04/12 07:06:59;;;;;;;0.20;0.20;;;;;;;18.25;33.05;100813.38;6261418;22;20012;-80
2022/04/12 07:09:27;;;;;;;0.20;0.20;;;;;;;18.21;33.55;100811.75;6251208;22;20420;-81
2022/04/12 07:11:57;;;;;;;0.20;0.20;;;;;;;18.49;32.84;100813.81;6278773;22;20014;-79
2022/04/12 07:14:23;;;;;;;0.20;0.20;;;;;;;19.37;31.17;100815.75;6252235;22;20003;-88
2022/04/12 07:16:49;;;;;;;0.20;0.20;;;;;;;19.03;31.49;100823.09;6252358;22;20049;-81
2022/04/12 07:19:15;;;;;;;0.20;0.20;;;;;;;19.10;32.26;100831.53;6279586;22;20016;-84
2022/04/12 07:21:40;;;;;;;0.20;0.20;;;;;;;20.03;30.54;100822.75;6226790;22;20011;-86
2022/04/12 07:24:07;;;;;;;0.20;0.20;;;;;;;19.88;30.24;100822.84;6251919;22;20012;-86
2022/04/12 07:26:33;;;;;;;0.20;0.20;;;;;;;18.67;32.21;100822.28;6251744;22;20420;-83
2022/04/12 07:28:59;;;;;;;0.20;0.20;;;;;;;18.33;32.71;100826.28;6284445;22;20000;-82
2022/04/12 07:31:26;;;;;;;0.20;0.20;;;;;;;18.24;33.25;100817.41;6251886;22;20000;-80
2022/04/12 07:33:52;;;;;;;0.20;0.20;;;;;;;19.12;31.64;100820.63;6252253;22;20007;-81
2022/04/12 07:36:18;;;;;;;0.20;0.20;;;;;;;19.42;30.93;100820.16;6252211;22;20306;-86
2022/04/12 07:38:44;;;;;;;0.20;0.20;;;;;;;19.45;30.36;100832.66;6251610;22;20008;-86
2022/04/12 07:41:09;;;;;;;0.20;0.20;;;;;;;18.45;31.05;100827.91;6251684;22;20003;-86
2022/04/12 07:43:38;;;;;;;0.20;0.20;;;;;;;18.51;31.64;100819.84;6257929;22;20004;-80
2022/04/12 07:46:04;;;;;;;0.20;0.20;;;;;;;18.14;31.51;100821.00;6263570;22;20440;-78
2022/04/12 07:48:30;;;;;;;0.20;0.20;;;;;;;19.08;30.69;100833.97;6294424;22;20030;-78
2022/04/12 07:50:56;;;;;;;0.20;0.20;;;;;;;20.28;29.46;100826.22;6280428;22;20020;-85
2022/04/12 07:53:21;;;;;;;0.20;0.20;;;;;;;20.32;28.57;100823.38;6251369;22;20008;-87
2022/04/12 07:55:47;;;;;;;0.20;0.20;;;;;;;21.20;27.89;100821.03;6252071;22;20036;-84
2022/04/12 07:58:14;;;;;;;0.20;0.20;;;;;;;21.78;26.92;100824.81;6252016;22;20090;-81
2022/04/12 08:00:40;;;;;;;0.20;0.20;;;;;;;21.97;26.61;100829.81;6251383;22;20004;-85
2022/04/12 08:03:06;;;;;;;0.20;0.20;;;;;;;21.56;26.96;100826.31;6251738;22;20420;-86
2022/04/12 08:05:33;;;;;;;0.20;0.20;;;;;;;21.88;26.03;100832.38;6250976;22;20423;-86
2022/04/12 08:07:58;;;;;;;0.20;0.20;;;;;;;20.75;27.93;100828.72;6277756;22;20037;-84
2022/04/12 08:10:24;;;;;;;0.20;0.20;;;;;;;20.98;27.83;100828.09;6250752;22;20004;-85
2022/04/12 08:12:52;;;;;;;0.10;0.10;;;;;;;20.66;27.78;100841.31;6252068;22;20008;-81
2022/04/12 08:15:18;;;;;;;0.20;0.20;;;;;;;20.93;27.58;100801.91;6252113;22;20309;-82
2022/04/12 08:17:44;;;;;;;0.10;0.10;;;;;;;22.16;26.42;100828.38;6251177;22;20090;-84
2022/04/12 08:20:10;;;;;;;0.20;0.20;;;;;;;22.45;25.51;100830.78;6251027;22;20087;-84
2022/04/12 08:22:36;;;;;;;0.20;0.20;;;;;;;21.59;26.95;100837.59;6278600;22;20032;-81
2022/04/12 08:25:03;;;;;;;0.20;0.20;;;;;;;21.09;26.54;100831.63;6250969;22;20145;-83
2022/04/12 08:27:28;;;;;;;0.20;0.20;;;;;;;20.64;27.71;100823.16;6251715;22;20012;-83
2022/04/12 08:29:54;;;;;;;0.20;0.20;;;;;;;20.95;27.04;100823.31;6252173;22;20439;-83
2022/04/12 08:32:20;;;;;;;0.20;0.20;;;;;;;21.31;26.55;100832.28;6252411;22;20092;-84
2022/04/12 08:34:47;;;;;;;0.10;0.10;;;;;;;21.65;26.03;100815.28;6278893;22;20317;-80
2022/04/12 08:37:12;;;;;;;0.20;0.20;;;;;;;21.53;26.51;100810.19;6251731;22;20066;-81
2022/04/12 08:39:38;;;;;;;0.20;0.20;;;;;;;22.10;25.71;100806.56;6251041;22;20004;-84
2022/04/12 08:42:05;;;;;;;0.13;0.13;;;;;;;22.83;25.54;100805.84;6278038;22;20455;-81
2022/04/12 08:44:33;;;;;;;0.20;0.20;;;;;;;22.77;24.53;100801.09;6278081;22;20408;-79
2022/04/12 08:47:02;;;;;;;0.20;0.20;;;;;;;22.45;25.06;100806.06;6278320;22;20007;-82
2022/04/12 08:49:29;;;;;;;0.20;0.20;;;;;;;20.57;27.24;100807.06;6277675;22;20008;-86
2022/04/12 08:51:55;;;;;;;0.20;0.20;;;;;;;21.19;26.13;100791.09;6251006;22;20015;-83
2022/04/12 08:54:21;;;;;;;0.20;0.20;;;;;;;20.61;26.95;100812.66;6251456;22;20373;-81
2022/04/12 08:56:51;;;;;;;0.20;0.20;;;;;;;21.01;26.82;100802.63;6278187;22;20006;-85
2022/04/12 08:59:19;;;;;;;0.20;0.20;;;;;;;21.98;26.32;100805.91;6250701;22;20006;-80
2022/04/12 09:01:46;;;;;;;0.20;0.20;;;;;;;22.75;24.11;100804.38;6277961;22;20004;-81
2022/04/12 09:04:13;;;;;;;0.20;0.20;;;;;;;21.53;25.83;100804.50;6250555;22;20003;-85
2022/04/12 09:06:53;;;;;;;0.10;0.10;;;;;;;22.75;25.45;100810.03;6250658;22;20459;-84
2022/04/12 09:09:21;;;;;;;0.13;0.13;;;;;;;22.30;25.30;100801.84;6247092;22;20012;-81
2022/04/12 09:12:08;;;;;;;0.10;0.10;;;;;;;21.23;26.49;100803.19;6251123;22;20039;-81
2022/04/12 09:14:42;;;;;;;0.20;0.20;;;;;;;21.53;26.44;100793.19;6250958;22;20010;-82
2022/04/12 09:17:10;;;;;;;0.20;0.20;;;;;;;20.66;27.49;100803.75;6250229;22;20020;-85
2022/04/12 09:19:43;;;;;;;0.10;0.10;;;;;;;22.00;26.96;100799.03;6251059;22;20008;-81
2022/04/12 09:22:19;;;;;;;0.15;0.15;;;;;;;22.21;25.93;100798.72;6277904;22;20454;-83
2022/04/12 09:24:58;;;;;;;0.20;0.20;;;;;;;22.12;25.38;100807.00;6250845;22;20004;-79
2022/04/12 09:27:26;;;;;;;0.10;0.10;;;;;;;22.82;24.77;100792.09;6277735;22;19999;-83
2022/04/12 09:29:54;;;;;;;0.10;0.10;;;;;;;23.08;24.44;100782.72;6277793;22;20010;-82
2022/04/12 09:32:21;;;;;;;0.20;0.20;;;;;;;22.65;24.77;100782.66;6251203;22;20065;-82
2022/04/12 09:34:47;;;;;;;0.10;0.10;;;;;;;21.84;25.67;100794.81;6250434;22;20008;-83
2022/04/12 09:37:26;;;;;;;0.20;0.20;;;;;;;22.12;25.48;100795.66;6276757;22;20035;-83
2022/04/12 09:40:01;;;;;;;0.10;0.10;;;;;;;21.81;25.72;100769.34;6250308;22;20007;-80
2022/04/12 09:42:43;;;;;;;0.10;0.10;;;;;;;22.18;25.67;100780.56;6250482;22;20008;-84
2022/04/12 09:45:15;;;;;;;0.10;0.10;;;;;;;22.52;25.36;100775.97;6250460;22;20014;-80
2022/04/12 09:47:41;;;;;;;0.20;0.20;;;;;;;22.27;25.61;100773.56;6250849;22;20003;-81
2022/04/12 09:50:09;;;;;;;0.10;0.10;;;;;;;23.18;24.72;100775.25;6250467;22;20010;-82
2022/04/12 09:52:34;;;;;;;0.20;0.20;;;;;;;22.55;25.04;100769.47;6249346;22;20011;-81
2022/04/12 09:55:00;;;;;;;0.20;0.20;;;;;;;22.54;24.68;100770.69;6250003;22;20432;-83
2022/04/12 09:57:26;;;;;;;0.17;0.17;;;;;;;22.09;25.08;100760.44;6249242;22;20056;-79
2022/04/12 09:59:56;;;;;;;0.10;0.10;;;;;;;22.26;25.27;100772.75;6249455;22;20007;-80
2022/04/12 10:02:25;;;;;;;0.20;0.20;;;;;;;21.30;26.11;100763.50;6277565;22;20004;-84
2022/04/12 10:04:54;;;;;;;0.10;0.10;;;;;;;21.55;26.33;100756.75;6277388;22;20026;-82
2022/04/12 10:07:21;;;;;;;0.20;0.20;;;;;;;22.14;25.33;100759.19;6250726;22;20015;-81
2022/04/12 10:09:53;;;;;;;0.20;0.20;;;;;;;22.89;23.80;100752.25;6250805;22;20007;-82
2022/04/12 10:12:19;;;;;;;0.20;0.20;;;;;;;22.68;24.51;100756.25;6251470;22;20007;-82
2022/04/12 10:14:46;;;;;;;0.13;0.13;;;;;;;22.43;26.06;100746.16;6251006;22;20026;-84
2022/04/12 10:17:13;;;;;;;0.10;0.10;;;;;;;22.68;27.84;100733.56;6250776;22;20007;-85
2022/04/12 10:19:40;;;;;;;0.10;0.10;;;;;;;23.50;26.97;100749.03;6249833;22;20000;-80
2022/04/12 10:22:07;;;;;;;0.10;0.10;;;;;;;23.85;27.16;100746.66;6250436;22;20321;-84
2022/04/12 10:24:34;;;;;;;0.20;0.20;;;;;;;23.60;27.50;100741.53;6277404;22;20425;-84
2022/04/12 10:27:00;;;;;;;0.15;0.15;;;;;;;23.27;27.82;100733.66;6250115;22;20004;-82
2022/04/12 10:29:26;;;;;;;0.20;0.20;;;;;;;23.47;27.68;100739.31;6249979;22;20014;-82
2022/04/12 10:31:59;;;;;;;0.20;0.20;;;;;;;23.62;27.82;100728.47;6250151;22;20008;-82
2022/04/12 10:34:24;;;;;;;;;;;;;;;23.58;28.22;100721.25;6277795;22;20000;-84
2022/04/12 10:37:08;;;;;;;0.10;0.10;;;;;;;22.95;28.99;100716.47;6250390;22;19986;-83
2022/04/12 10:39:55;;;;;;;0.20;0.20;;;;;;;22.83;28.73;100715.06;6249634;22;20008;-84
2022/04/12 10:42:34;;;;;;;0.10;0.10;;;;;;;23.11;28.04;100722.22;6250379;22;20320;-82
2022/04/12 10:45:02;;;;;;;0.10;0.10;;;;;;;22.91;28.98;100716.56;6272024;22;20019;-82
2022/04/12 10:47:42;;;;;;;0.10;0.10;;;;;;;23.44;28.62;100705.34;6276557;22;19999;-82
2022/04/12 10:50:13;;;;;;;0.15;0.15;;;;;;;23.87;27.56;100699.53;6252405;22;20328;-85
2022/04/12 10:52:41;;;;;;;0.10;0.10;;;;;;;24.09;26.91;100701.84;6246543;23;20066;-84
2022/04/12 10:55:10;;;;;;;0.10;0.10;;;;;;;23.91;26.99;100685.22;6248828;23;20022;-83
2022/04/12 10:57:36;;;;;;;0.10;0.10;;;;;;;23.75;26.81;100694.50;6247382;23;20113;-82
2022/04/12 11:00:14;;;;;;;0.13;0.13;;;;;;;24.37;25.88;100684.09;6246840;23;20031;-81
2022/04/12 11:02:45;;;;;;;0.10;0.10;;;;;;;24.11;26.35;100690.81;6248284;22;20004;-83
2022/04/12 11:05:33;;;;;;;0.20;0.20;;;;;;;24.21;26.49;100682.03;6246734;23;20008;-81
2022/04/12 11:08:33;;;;;;;0.17;0.17;;;;;;;23.16;26.80;100686.88;6223568;23;20018;-82
2022/04/12 11:10:59;;;;;;;0.10;0.10;;;;;;;22.96;27.19;100684.84;6247151;23;20004;-81
2022/04/12 11:13:28;;;;;;;0.10;0.10;;;;;;;23.33;26.65;100680.03;6246612;23;20004;-83
2022/04/12 11:16:03;;;;;;;0.20;0.20;;;;;;;23.64;26.41;100677.72;6246522;23;20065;-82
2022/04/12 11:18:55;;;;;;;0.10;0.10;;;;;;;23.20;26.81;100673.41;6248029;22;20425;-83
2022/04/12 11:21:26;;;;;;;0.20;0.20;;;;;;;22.78;27.79;100670.16;6246614;23;20494;-81
2022/04/12 11:23:57;;;;;;;0.20;0.20;;;;;;;22.89;27.53;100656.59;6248253;22;20476;-84
2022/04/12 11:26:40;;;;;;;0.15;0.15;;;;;;;22.11;28.35;100663.72;6248283;22;20008;-82
2022/04/12 11:29:10;;;;;;;0.10;0.10;;;;;;;22.40;28.40;100652.66;6246536;23;20008;-83
2022/04/12 11:31:44;;;;;;;0.15;0.15;;;;;;;22.60;27.73;100658.38;6247185;23;20004;-76
2022/04/12 11:34:10;;;;;;;0.10;0.10;;;;;;;22.58;27.45;100652.31;6246575;23;20008;-77